createdAt,value
2019-05-26T00:06:50.970Z,12.9
2019-05-26T00:22:06.330Z,12.9
2019-05-26T00:37:08.534Z,12.9
2019-05-26T00:52:36.767Z,12.8
2019-05-26T01:08:05.108Z,12.9
2019-05-26T01:23:36.179Z,12.8
2019-05-26T01:39:05.277Z,12.7
2019-05-26T01:54:34.388Z,12.5
2019-05-26T02:09:50.082Z,12.4
2019-05-26T02:25:05.144Z,12.3
2019-05-26T02:40:20.136Z,12.1
2019-05-26T02:55:28.391Z,11.9
2019-05-26T03:10:49.866Z,11.7
2019-05-26T03:26:04.713Z,11.7
2019-05-26T03:41:19.513Z,11.8
2019-05-26T03:56:21.617Z,11.8
2019-05-26T04:11:49.323Z,12
2019-05-26T04:27:04.305Z,12.2
2019-05-26T04:42:19.340Z,12.3
2019-05-26T04:57:34.465Z,12.5
2019-05-26T05:12:49.363Z,12.8
2019-05-26T05:28:05.038Z,13.2
2019-05-26T05:43:20.536Z,13.5
2019-05-26T05:58:35.236Z,14
2019-05-26T06:13:52.142Z,14.6
2019-05-26T06:29:08.356Z,15.3
2019-05-26T06:44:22.578Z,15.7
2019-05-26T06:59:41.454Z,16.1
2019-05-26T07:14:58.222Z,16.5
2019-05-26T07:29:59.943Z,16.8
2019-05-26T07:45:32.226Z,17.1
2019-05-26T08:00:49.558Z,17.5
2019-05-26T08:16:06.860Z,17.9
2019-05-26T08:31:08.563Z,18.4
2019-05-26T08:46:41.337Z,18.7
2019-05-26T09:02:00.024Z,19
2019-05-26T09:17:18.191Z,19.8
2019-05-26T09:32:36.520Z,20
2019-05-26T09:47:50.614Z,20.5
2019-05-26T10:03:13.714Z,20.9
2019-05-26T10:18:32.483Z,21.1
2019-05-26T10:33:51.523Z,21.7
2019-05-26T10:48:59.718Z,21.9
2019-05-26T11:04:30.136Z,22.6
2019-05-26T11:19:49.732Z,23
2019-05-26T11:35:09.613Z,23.4
2019-05-26T11:50:29.720Z,24
2019-05-26T12:05:43.323Z,24.4
2019-05-26T12:21:10.543Z,24.4
2019-05-26T12:36:31.070Z,24.7
2019-05-26T12:51:52.787Z,25
2019-05-26T13:06:55.895Z,25
2019-05-26T13:22:29.900Z,25.3
2019-05-26T13:37:54.430Z,25.7
2019-05-26T13:53:15.654Z,25.8
2019-05-26T14:08:37.013Z,26
2019-05-26T14:23:44.316Z,26.2
2019-05-26T14:39:18.571Z,26.1
2019-05-26T14:54:41.846Z,25.9
2019-05-26T15:10:03.491Z,26.1
2019-05-26T15:25:25.555Z,26.1
2019-05-26T15:40:33.251Z,25.6
2019-05-26T15:56:06.941Z,25.1
2019-05-26T16:11:28.926Z,24.9
2019-05-26T16:26:49.694Z,24.8
2019-05-26T16:42:10.896Z,24.9
2019-05-26T16:57:19.492Z,25
2019-05-26T17:12:53.199Z,24.8
2019-05-26T17:28:14.351Z,24.6
2019-05-26T17:43:35.045Z,24.1
2019-05-26T17:58:55.398Z,23.7
2019-05-26T18:14:04.123Z,23.3
2019-05-26T18:29:35.185Z,22.9
2019-05-26T18:44:54.769Z,22.5
2019-05-26T19:00:14.217Z,21.9
2019-05-26T19:15:32.824Z,21.2
2019-05-26T19:30:45.678Z,20.7
2019-05-26T19:46:09.935Z,20.4
2019-05-26T20:01:28.327Z,20.1
2019-05-26T20:16:46.455Z,19.7
2019-05-26T20:31:50.438Z,19.4
2019-05-26T20:47:20.795Z,18.9
2019-05-26T21:02:40.122Z,18.5
2019-05-26T21:17:57.675Z,18.2
2019-05-26T21:33:15.207Z,18
2019-05-26T21:48:23.386Z,17.9
2019-05-26T22:03:49.798Z,17.6
2019-05-26T22:19:07.071Z,17.4
2019-05-26T22:34:24.064Z,17.2
2019-05-26T22:49:41.070Z,17.1
2019-05-26T23:04:55.502Z,16.9
2019-05-26T23:20:14.868Z,16.8
2019-05-26T23:35:31.754Z,16.7
2019-05-26T23:50:48.454Z,16.4
